Time;durP1;ratioP1;P1;durP2;ratioP2;P2;SDS_P1;SDS_P2;PMS_P1;PMS_P2;Temp;Humidity;BMP_temperature;BMP_pressure;BME280_temperature;BME280_humidity;BME280_pressure;Samples;Min_cycle;Max_cycle;Signal;HPM_P1;HPM_P2
2022/12/01 00:01:09;;;;;;;45.33;15.57;;;;;;;-8.11;74.19;102113.44;4990691;28;20038;-44
2022/12/01 00:03:35;;;;;;;42.55;17.40;;;;;;;-8.15;73.70;102108.91;4989205;28;20092;-46
2022/12/01 00:06:03;;;;;;;41.17;15.63;;;;;;;-8.14;74.40;102116.63;4990332;28;20061;-42
2022/12/01 00:08:29;;;;;;;41.35;15.85;;;;;;;-8.14;74.19;102118.25;4961014;28;20038;-45
2022/12/01 00:11:05;;;;;;;41.40;16.17;;;;;;;-8.15;73.76;102116.50;4988068;28;20537;-46
2022/12/01 00:13:32;;;;;;;46.83;15.88;;;;;;;-8.15;74.37;102121.53;4985246;28;20050;-45
2022/12/01 00:16:08;;;;;;;40.47;16.58;;;;;;;-8.34;74.15;102083.94;4988753;28;20034;-48
2022/12/01 00:18:34;;;;;;;39.97;15.35;;;;;;;-8.14;74.06;102115.72;4988230;28;20165;-46
2022/12/01 00:21:00;;;;;;;43.42;16.05;;;;;;;-8.36;74.05;102087.97;4989667;28;20121;-45
2022/12/01 00:23:25;;;;;;;45.50;16.02;;;;;;;-8.18;74.10;102113.75;4987340;28;20568;-44
2022/12/01 00:25:51;;;;;;;48.67;17.48;;;;;;;-8.16;74.35;102117.25;4987459;28;20038;-44
2022/12/01 00:28:17;;;;;;;42.08;16.42;;;;;;;-8.17;73.80;102115.50;4971998;28;20038;-44
2022/12/01 00:30:43;;;;;;;41.20;16.35;;;;;;;-8.16;74.35;102115.59;4973474;28;20219;-46
2022/12/01 00:33:09;;;;;;;45.95;16.17;;;;;;;-8.18;73.88;102112.09;4984427;28;20104;-44
2022/12/01 00:35:35;;;;;;;44.00;16.30;;;;;;;-8.19;74.47;102117.91;4986087;28;20054;-45
2022/12/01 00:38:01;;;;;;;47.45;16.98;;;;;;;-8.18;74.05;102117.16;4986327;28;20121;-45
2022/12/01 00:40:27;;;;;;;44.67;16.20;;;;;;;-8.18;74.61;102119.66;4987745;28;20403;-43
2022/12/01 00:42:53;;;;;;;42.22;16.25;;;;;;;-8.21;74.54;102110.94;4971193;28;20050;-46
2022/12/01 00:45:18;;;;;;;44.03;15.38;;;;;;;-8.21;73.77;102111.84;4980106;28;20046;-44
2022/12/01 00:47:44;;;;;;;48.72;17.83;;;;;;;-8.21;74.37;102111.84;4953731;28;20470;-43
2022/12/01 00:50:10;;;;;;;47.55;17.73;;;;;;;-8.20;74.16;102107.69;4981497;28;20075;-45
2022/12/01 00:52:36;;;;;;;41.58;16.23;;;;;;;-8.38;73.98;102079.41;4970945;28;20058;-45
2022/12/01 00:55:02;;;;;;;45.70;16.75;;;;;;;-8.20;74.03;102106.03;4979152;28;20093;-44
2022/12/01 00:57:28;;;;;;;45.65;17.00;;;;;;;-8.21;74.33;102109.31;4986907;28;20105;-45
2022/12/01 00:59:54;;;;;;;49.80;16.92;;;;;;;-8.26;74.26;102100.50;4981636;28;20521;-44
2022/12/01 01:02:20;;;;;;;48.65;16.52;;;;;;;-8.62;74.30;102032.94;4978461;28;20046;-42
2022/12/01 01:04:46;;;;;;;42.15;16.05;;;;;;;-8.24;74.02;102103.16;4975458;28;20038;-49
2022/12/01 01:07:11;;;;;;;38.92;15.13;;;;;;;-8.22;74.43;102107.59;4969542;28;20396;-44
2022/12/01 01:09:37;;;;;;;42.70;15.23;;;;;;;-8.24;74.21;102103.16;4976841;28;20112;-43
2022/12/01 01:12:03;;;;;;;42.80;15.88;;;;;;;-8.23;74.21;102104.94;4969276;28;20046;-45
2022/12/01 01:14:29;;;;;;;44.45;15.63;;;;;;;-8.45;73.73;102073.75;4985551;28;20050;-45
2022/12/01 01:16:55;;;;;;;44.65;16.42;;;;;;;-8.30;73.76;102105.22;4969942;28;20037;-43
2022/12/01 01:19:21;;;;;;;37.90;15.20;;;;;;;-8.30;74.17;102102.69;4975931;28;20042;-45
2022/12/01 01:21:47;;;;;;;45.13;16.20;;;;;;;-8.28;74.00;102107.09;4989708;28;20038;-44
2022/12/01 01:24:13;;;;;;;43.03;16.08;;;;;;;-8.30;73.68;102110.28;4967973;28;20416;-44
2022/12/01 01:26:39;;;;;;;40.28;15.73;;;;;;;-8.33;74.08;102105.88;4970730;28;20081;-44
2022/12/01 01:29:06;;;;;;;38.40;15.65;;;;;;;-8.34;73.74;102109.16;4987891;28;20133;-44
2022/12/01 01:31:33;;;;;;;43.05;15.80;;;;;;;-8.34;74.00;102105.75;5004530;28;20034;-43
2022/12/01 01:33:58;;;;;;;49.30;17.25;;;;;;;-8.32;74.22;102106.75;4988781;28;20102;-45
2022/12/01 01:36:25;;;;;;;42.72;16.33;;;;;;;-8.32;73.65;102102.56;4988186;28;20046;-45
2022/12/01 01:38:53;;;;;;;40.47;16.17;;;;;;;-8.31;73.80;102103.44;4988365;28;20038;-44
2022/12/01 01:41:19;;;;;;;38.38;15.18;;;;;;;-8.32;73.40;102101.72;4987898;28;20038;-45
2022/12/01 01:44:11;;;;;;;41.30;14.75;;;;;;;-8.31;73.68;102090.84;4989808;28;20053;-43
2022/12/01 01:46:37;;;;;;;38.47;15.20;;;;;;;-8.51;73.63;102053.94;4973130;28;20074;-44
2022/12/01 01:49:04;;;;;;;48.67;17.48;;;;;;;-8.31;73.38;102085.78;4985408;28;20558;-43
2022/12/01 01:51:42;;;;;;;41.20;15.32;;;;;;;-8.34;73.57;102088.09;4987557;28;20046;-45
2022/12/01 01:54:18;;;;;;;46.42;16.67;;;;;;;-8.32;73.75;102094.16;4988346;28;20514;-44
2022/12/01 01:56:45;;;;;;;42.28;15.60;;;;;;;-8.32;73.52;102092.47;4987767;28;20039;-44
2022/12/01 01:59:12;;;;;;;40.50;14.65;;;;;;;-8.39;73.76;102085.22;4988913;28;20050;-44
2022/12/01 02:01:38;;;;;;;41.70;16.38;;;;;;;-8.36;73.62;102097.16;4994836;28;20047;-46
2022/12/01 02:04:04;;;;;;;46.30;16.17;;;;;;;-8.35;73.42;102099.81;4970568;28;20523;-44
2022/12/01 02:06:30;;;;;;;43.15;15.00;;;;;;;-8.36;73.73;102098.03;4981722;28;20049;-46
2022/12/01 02:08:56;;;;;;;38.35;15.30;;;;;;;-8.36;73.53;102098.03;4989462;28;20173;-43
2022/12/01 02:11:32;;;;;;;44.15;16.38;;;;;;;-8.35;73.92;102101.47;4976200;28;20546;-46
2022/12/01 02:14:28;;;;;;;45.03;15.90;;;;;;;-8.35;73.08;102102.34;4969012;28;20094;-45
2022/12/01 02:17:04;;;;;;;41.55;15.15;;;;;;;-8.36;73.74;102102.22;4984966;28;20039;-45
2022/12/01 02:19:49;;;;;;;41.08;15.75;;;;;;;-8.35;73.09;102102.34;4968991;28;20042;-43
2022/12/01 02:22:39;;;;;;;39.63;15.60;;;;;;;-8.36;73.16;102099.69;5000045;28;20074;-43
2022/12/01 02:25:29;;;;;;;38.03;14.10;;;;;;;-8.37;73.38;102103.00;4970144;28;20065;-42
2022/12/01 02:28:26;;;;;;;40.88;14.48;;;;;;;-8.39;73.13;102099.47;4971484;28;20054;-46
2022/12/01 02:30:55;;;;;;;31.92;14.10;;;;;;;-8.40;73.61;102101.09;4989359;28;20034;-46
2022/12/01 02:33:27;;;;;;;43.42;15.05;;;;;;;-8.42;72.99;102107.66;4991492;28;20142;-43
2022/12/01 02:36:01;;;;;;;41.78;16.55;;;;;;;-8.43;72.72;102105.91;4985700;28;20030;-45
2022/12/01 02:38:54;;;;;;;39.47;14.32;;;;;;;-8.44;73.12;102105.78;4972173;28;20400;-45
2022/12/01 02:41:25;;;;;;;43.08;15.43;;;;;;;-8.45;72.78;102096.44;4978663;28;20057;-45
2022/12/01 02:44:01;;;;;;;53.65;15.57;;;;;;;-8.44;73.05;102101.63;4991542;28;20039;-45
2022/12/01 02:46:36;;;;;;;42.70;14.63;;;;;;;-8.44;72.55;102100.72;4991511;28;20429;-45
2022/12/01 02:49:08;;;;;;;42.55;14.80;;;;;;;-8.47;72.64;102097.94;4994051;28;20062;-44
2022/12/01 02:51:35;;;;;;;47.08;15.20;;;;;;;-8.75;72.67;102047.84;4984316;28;20049;-46
2022/12/01 02:54:02;;;;;;;44.00;15.63;;;;;;;-8.50;72.82;102095.19;4994760;28;20057;-45
2022/12/01 02:56:28;;;;;;;40.90;15.25;;;;;;;-8.49;72.64;102102.00;4993133;28;20576;-43
2022/12/01 02:58:54;;;;;;;41.80;15.65;;;;;;;-8.49;72.44;102092.81;4973165;28;20046;-45
2022/12/01 03:01:38;;;;;;;43.63;16.27;;;;;;;-8.48;73.27;102083.59;4980788;28;20057;-43
2022/12/01 03:04:40;;;;;;;43.72;15.23;;;;;;;-8.54;72.75;102086.50;4991760;28;20042;-42
2022/12/01 03:07:12;;;;;;;41.85;14.75;;;;;;;-8.57;72.73;102091.28;4990533;28;20049;-43
2022/12/01 03:09:50;;;;;;;42.65;16.13;;;;;;;-8.57;73.12;102087.13;4974817;28;20046;-43
2022/12/01 03:12:25;;;;;;;36.58;14.77;;;;;;;-8.57;72.46;102091.28;4977778;28;20053;-44
2022/12/01 03:15:07;;;;;;;37.70;14.73;;;;;;;-8.55;72.25;102093.94;4987504;28;20077;-46
2022/12/01 03:17:46;;;;;;;40.50;14.75;;;;;;;-8.60;72.70;102086.00;4988705;28;20038;-45
2022/12/01 03:20:19;;;;;;;39.15;14.80;;;;;;;-8.58;73.15;102085.34;4975156;28;20434;-44
2022/12/01 03:22:59;;;;;;;42.20;14.30;;;;;;;-8.57;73.04;102083.72;4976463;28;20435;-44
2022/12/01 03:25:27;;;;;;;41.97;15.38;;;;;;;-8.64;72.78;102072.28;4972544;28;20113;-43
2022/12/01 03:27:55;;;;;;;40.88;15.23;;;;;;;-8.79;72.21;102042.44;4974865;28;20043;-43
2022/12/01 03:30:23;;;;;;;41.75;15.63;;;;;;;-8.78;72.68;102044.19;4973573;28;20050;-45
2022/12/01 03:32:56;;;;;;;46.28;15.68;;;;;;;-8.58;72.92;102080.31;4965339;28;20042;-46
2022/12/01 03:35:45;;;;;;;44.95;14.90;;;;;;;-8.54;72.45;102084.00;4971257;28;20145;-45
2022/12/01 03:38:17;;;;;;;43.15;15.65;;;;;;;-8.77;72.24;102035.88;4988236;28;20078;-45
2022/12/01 03:40:44;;;;;;;44.78;16.20;;;;;;;-8.54;72.77;102073.91;4988704;28;20085;-46
2022/12/01 03:43:14;;;;;;;43.90;16.42;;;;;;;-8.70;72.46;102049.09;4985389;28;20578;-43
2022/12/01 03:45:46;;;;;;;35.33;14.57;;;;;;;-8.46;72.72;102080.41;4990788;28;20038;-45
2022/12/01 03:48:12;;;;;;;40.28;15.18;;;;;;;-8.43;72.20;102079.81;4980249;28;20049;-44
2022/12/01 03:51:17;;;;;;;46.28;15.90;;;;;;;-8.44;71.78;102078.91;4991555;28;20042;-47
2022/12/01 03:53:56;;;;;;;39.28;15.60;;;;;;;-8.45;72.13;102089.75;4996319;28;20058;-45
2022/12/01 03:56:26;;;;;;;37.03;14.73;;;;;;;-8.50;71.89;102082.59;5001277;28;20049;-44
2022/12/01 03:58:55;;;;;;;45.88;15.73;;;;;;;-8.49;72.02;102089.41;4987438;28;20145;-45
2022/12/01 04:01:21;;;;;;;40.97;14.77;;;;;;;-8.51;71.83;102083.34;4987365;28;20046;-46
2022/12/01 04:03:47;;;;;;;38.08;15.75;;;;;;;-8.50;72.41;102091.03;4988862;28;20045;-45
2022/12/01 04:06:13;;;;;;;40.13;15.52;;;;;;;-8.47;72.61;102090.38;4976472;28;20077;-46
2022/12/01 04:08:39;;;;;;;43.42;15.38;;;;;;;-8.43;72.00;102088.25;4979625;28;20109;-45
2022/12/01 04:12:28;;;;;;;43.47;16.13;;;;;;;-8.43;72.62;102080.69;4989662;28;20581;-44
2022/12/01 04:13:51;;;;;;;36.95;15.15;;;;;;;-8.45;72.60;102083.81;4970153;28;20062;-45
2022/12/01 04:16:17;;;;;;;40.40;15.68;;;;;;;-8.46;71.94;102085.47;4971499;28;20043;-46
2022/12/01 04:18:43;;;;;;;39.72;16.13;;;;;;;-8.44;72.21;102089.00;4971283;28;20077;-43
2022/12/01 04:21:08;;;;;;;39.85;15.68;;;;;;;-8.66;72.08;102053.63;5005835;28;20049;-44
2022/12/01 04:26:18;;;;;;;38.67;15.63;;;;;;;-8.59;72.06;102049.97;4973674;28;20050;-45
2022/12/01 04:28:44;;;;;;;41.47;15.80;;;;;;;-8.41;72.39;102084.19;4982147;28;20046;-43
2022/12/01 04:31:10;;;;;;;42.47;15.55;;;;;;;-8.41;71.83;102084.19;4971316;28;20145;-43
2022/12/01 04:33:36;;;;;;;39.72;15.57;;;;;;;-8.44;71.85;102086.47;4987874;28;20159;-43
2022/12/01 04:36:02;;;;;;;46.03;16.92;;;;;;;-8.43;71.58;102085.72;4989925;28;20038;-44
2022/12/01 04:38:28;;;;;;;48.03;15.70;;;;;;;-8.43;71.64;102082.31;4981299;28;20050;-45
2022/12/01 04:40:54;;;;;;;37.22;15.63;;;;;;;-8.41;71.43;102089.22;4969887;28;20093;-44
2022/12/01 04:43:20;;;;;;;45.95;14.98;;;;;;;-8.40;71.46;102088.47;4980509;28;20418;-46
2022/12/01 04:45:46;;;;;;;43.00;15.40;;;;;;;-8.39;71.48;102085.22;4989195;28;20049;-45
2022/12/01 04:48:11;;;;;;;42.95;15.98;;;;;;;-8.38;71.75;102081.03;4998310;28;20051;-45
2022/12/01 04:50:37;;;;;;;45.08;17.25;;;;;;;-8.40;72.17;102085.06;4970509;28;20038;-45
2022/12/01 04:53:03;;;;;;;44.65;15.90;;;;;;;-8.40;71.40;102085.06;4979233;28;20060;-43
2022/12/01 04:55:29;;;;;;;41.30;15.80;;;;;;;-8.36;72.16;102087.06;4988958;28;20042;-44
2022/12/01 04:57:55;;;;;;;44.00;17.20;;;;;;;-8.32;71.60;102089.09;4984516;28;20042;-44
2022/12/01 05:00:20;;;;;;;47.20;15.13;;;;;;;-8.33;71.81;102084.81;4989852;28;20039;-43
2022/12/01 05:02:46;;;;;;;35.95;14.27;;;;;;;-8.51;71.44;102053.94;4993381;28;20050;-45
2022/12/01 05:05:13;;;;;;;38.63;15.63;;;;;;;-8.34;71.39;102083.94;4987908;28;20386;-44
2022/12/01 05:07:39;;;;;;;35.25;15.45;;;;;;;-8.32;71.25;102089.09;4989975;28;20042;-43
2022/12/01 05:10:06;;;;;;;45.70;16.85;;;;;;;-8.33;71.41;102090.75;4989570;28;20128;-45
2022/12/01 05:12:32;;;;;;;45.53;16.38;;;;;;;-8.31;71.01;102094.25;4984622;28;20070;-43
2022/12/01 05:14:58;;;;;;;44.42;16.25;;;;;;;-8.29;71.56;102096.88;4986448;28;20129;-44
2022/12/01 05:17:24;;;;;;;42.88;15.35;;;;;;;-8.26;71.39;102099.63;5008760;28;20128;-45
2022/12/01 05:22:34;;;;;;;47.95;15.27;;;;;;;-8.19;71.42;102104.41;4976968;28;20121;-46
2022/12/01 05:25:00;;;;;;;40.75;15.43;;;;;;;-8.15;71.24;102106.41;4982040;28;20065;-45
2022/12/01 05:27:26;;;;;;;43.22;16.42;;;;;;;-8.13;71.38;102099.84;4969856;28;20053;-46
2022/12/01 05:29:51;;;;;;;47.53;17.98;;;;;;;-8.11;70.71;102094.94;4972831;28;20047;-47
2022/12/01 05:32:17;;;;;;;54.13;17.35;;;;;;;-8.07;71.10;102100.31;4974418;28;20415;-46
2022/12/01 05:34:43;;;;;;;45.30;15.50;;;;;;;-8.22;70.69;102068.84;5003072;28;20430;-45
2022/12/01 05:37:09;;;;;;;52.08;17.58;;;;;;;-8.02;71.20;102093.13;4968656;28;20581;-45
2022/12/01 05:39:35;;;;;;;45.75;16.15;;;;;;;-7.97;71.30;102102.81;4981803;28;20053;-46
2022/12/01 05:42:01;;;;;;;40.90;15.35;;;;;;;-7.92;70.95;102105.69;4989408;28;20042;-46
2022/12/01 05:44:26;;;;;;;47.33;15.82;;;;;;;-7.85;70.98;102110.47;4987287;28;20045;-47
2022/12/01 05:46:52;;;;;;;44.22;16.35;;;;;;;-8.00;70.52;102082.34;4989378;28;20042;-45
2022/12/01 05:49:18;;;;;;;43.53;16.85;;;;;;;-7.74;70.21;102113.03;4993823;28;20157;-45
2022/12/01 05:51:44;;;;;;;44.08;17.60;;;;;;;-7.65;70.19;102117.94;4998405;28;20038;-45
2022/12/01 05:54:09;;;;;;;49.45;16.95;;;;;;;-7.78;69.91;102088.31;4988262;28;20069;-45
2022/12/01 05:56:35;;;;;;;49.45;17.80;;;;;;;-7.55;70.07;102122.03;4986373;28;20042;-45
2022/12/01 05:59:01;;;;;;;56.65;18.75;;;;;;;-7.56;69.93;102116.09;4975624;28;20170;-44
2022/12/01 06:01:27;;;;;;;43.20;17.65;;;;;;;-7.51;70.07;102127.44;4984756;28;20089;-45
2022/12/01 06:03:53;;;;;;;57.65;17.83;;;;;;;-7.47;69.93;102124.38;4976812;28;20682;-44
2022/12/01 06:06:19;;;;;;;46.90;18.05;;;;;;;-7.44;69.58;102131.31;4977086;28;20042;-44
2022/12/01 06:08:45;;;;;;;50.40;17.63;;;;;;;-7.37;69.87;102136.94;4993611;28;20130;-46
2022/12/01 06:11:11;;;;;;;46.63;17.33;;;;;;;-7.31;69.35;102131.47;4974782;28;20042;-46
2022/12/01 06:13:37;;;;;;;54.22;18.77;;;;;;;-7.24;69.17;102131.19;4991340;28;20062;-45
2022/12/01 06:16:04;;;;;;;47.28;17.88;;;;;;;-7.21;69.04;102133.06;4989034;28;20031;-44
2022/12/01 06:18:32;;;;;;;59.13;20.08;;;;;;;-7.15;69.23;102136.06;4990500;28;20065;-45
2022/12/01 06:20:59;;;;;;;53.95;18.05;;;;;;;-7.28;68.61;102101.41;5000191;28;20048;-46
2022/12/01 06:23:25;;;;;;;50.28;17.20;;;;;;;-7.04;68.59;102141.16;4985472;28;20051;-45
2022/12/01 06:25:50;;;;;;;46.85;17.42;;;;;;;-6.98;68.81;102139.09;4978724;28;20045;-46
2022/12/01 06:28:16;;;;;;;45.00;17.38;;;;;;;-6.91;68.12;102141.28;4992531;28;20050;-44
2022/12/01 06:30:42;;;;;;;45.40;18.52;;;;;;;-6.83;68.42;102136.81;4978769;28;20042;-45
2022/12/01 06:33:08;;;;;;;54.90;19.45;;;;;;;-6.75;68.35;102150.03;4982158;28;20501;-45
2022/12/01 06:35:34;;;;;;;56.88;20.60;;;;;;;-6.65;68.16;102147.44;4991957;28;20050;-45
2022/12/01 06:38:00;;;;;;;57.70;19.58;;;;;;;-6.61;67.61;102144.34;4988370;28;20430;-43
2022/12/01 06:40:27;;;;;;;54.25;20.92;;;;;;;-6.64;67.87;102122.22;4992185;28;20045;-49
2022/12/01 06:42:53;;;;;;;62.45;21.17;;;;;;;-6.34;67.35;102143.84;4985315;28;20050;-44
2022/12/01 06:45:19;;;;;;;54.03;19.63;;;;;;;-6.36;66.99;102107.41;4971924;28;20097;-43
2022/12/01 06:47:46;;;;;;;51.35;21.02;;;;;;;-5.97;66.83;102137.22;4988428;28;20046;-44
2022/12/01 06:50:12;;;;;;;55.15;21.17;;;;;;;-5.80;66.70;102148.50;4988962;28;20042;-43
2022/12/01 06:52:38;;;;;;;60.63;21.30;;;;;;;-5.76;66.27;102130.22;4989716;28;20510;-45
2022/12/01 06:55:05;;;;;;;70.32;22.67;;;;;;;-5.67;65.79;102105.53;4987330;28;20125;-47
2022/12/01 06:57:31;;;;;;;54.00;20.67;;;;;;;-5.27;65.55;102142.97;4990181;28;20035;-46
2022/12/01 06:59:57;;;;;;;55.42;21.63;;;;;;;-5.17;65.41;102139.38;4982203;28;20050;-47
2022/12/01 07:02:23;;;;;;;56.05;22.05;;;;;;;-5.16;64.81;102129.34;4987830;28;20049;-44
2022/12/01 07:04:48;;;;;;;50.92;19.50;;;;;;;-5.25;65.27;102121.13;4988004;28;20506;-47
2022/12/01 07:07:14;;;;;;;55.70;21.85;;;;;;;-5.15;64.93;102128.59;4985968;28;20165;-45
2022/12/01 07:09:40;;;;;;;53.13;20.20;;;;;;;-5.03;64.97;102130.19;4990655;28;20042;-47
2022/12/01 07:12:06;;;;;;;48.85;19.42;;;;;;;-5.04;64.80;102121.69;4988992;28;20043;-45
2022/12/01 07:14:32;;;;;;;52.35;19.83;;;;;;;-5.07;64.44;102095.22;4985936;28;20049;-44
2022/12/01 07:16:58;;;;;;;52.42;19.90;;;;;;;-4.78;64.37;102131.03;4969629;28;20046;-45
2022/12/01 07:19:24;;;;;;;54.45;20.83;;;;;;;-4.93;63.63;102064.97;4986813;28;20053;-45
2022/12/01 07:21:51;;;;;;;64.72;20.80;;;;;;;-4.40;63.31;102123.41;4989753;28;20042;-48
2022/12/01 07:24:16;;;;;;;47.03;19.40;;;;;;;-4.20;62.93;102127.22;4988835;28;20034;-46
2022/12/01 07:26:42;;;;;;;52.28;19.98;;;;;;;-4.03;62.18;102130.03;4987309;28;20537;-51
2022/12/01 07:29:09;;;;;;;51.25;20.60;;;;;;;-3.87;62.01;102122.59;4989917;28;20077;-46
2022/12/01 07:31:36;;;;;;;56.65;21.38;;;;;;;-3.64;61.87;102126.56;4993862;28;20104;-51
2022/12/01 07:34:03;;;;;;;50.03;21.00;;;;;;;-3.33;61.12;102129.31;4973392;28;20052;-46
2022/12/01 07:36:28;;;;;;;54.28;21.70;;;;;;;-3.21;60.56;102097.00;4968055;28;20062;-47
2022/12/01 07:38:54;;;;;;;58.33;21.67;;;;;;;-2.81;60.09;102140.03;4979202;28;20732;-51
2022/12/01 07:41:20;;;;;;;57.63;21.98;;;;;;;-2.82;59.65;102131.53;4988561;28;20074;-49
2022/12/01 07:43:49;;;;;;;58.78;22.75;;;;;;;-2.80;59.56;102135.06;4973895;28;20489;-50
2022/12/01 07:46:24;;;;;;;58.42;22.15;;;;;;;-2.68;59.15;102135.78;4988915;28;20046;-51
2022/12/01 07:48:54;;;;;;;65.50;25.90;;;;;;;-2.64;58.53;102091.00;4984557;28;20069;-49
2022/12/01 07:51:21;;;;;;;59.30;21.48;;;;;;;-2.15;57.64;102110.78;4991822;28;20061;-53
2022/12/01 07:53:48;;;;;;;61.35;22.33;;;;;;;-1.79;57.25;102131.47;4981355;28;20065;-50
2022/12/01 07:56:14;;;;;;;56.63;22.00;;;;;;;-1.39;56.66;102137.00;4985407;28;20047;-51
2022/12/01 07:58:41;;;;;;;56.35;22.48;;;;;;;-0.95;55.87;102124.91;4987323;28;20124;-51
2022/12/01 08:01:12;;;;;;;60.38;22.45;;;;;;;-0.82;54.78;102100.84;4988516;28;20050;-49
2022/12/01 08:03:38;;;;;;;57.05;22.60;;;;;;;-0.47;53.97;102133.25;4983792;28;20050;-52
2022/12/01 08:06:06;;;;;;;60.75;22.42;;;;;;;-0.45;53.44;102134.22;4987882;28;20070;-50
2022/12/01 08:08:33;;;;;;;58.58;24.08;;;;;;;-0.50;53.34;102133.97;4986164;28;20522;-54
2022/12/01 08:11:01;;;;;;;59.85;24.63;;;;;;;-0.59;53.20;102133.53;4983825;28;20534;-51
2022/12/01 08:13:27;;;;;;;64.80;24.38;;;;;;;-0.70;53.21;102132.13;4981774;28;20525;-51
2022/12/01 08:15:53;;;;;;;63.75;25.48;;;;;;;-0.50;52.99;102131.44;4996518;28;20403;-49
2022/12/01 08:18:19;;;;;;;64.10;24.80;;;;;;;-0.20;52.05;102093.69;4988241;28;20049;-50
2022/12/01 08:20:45;;;;;;;64.57;25.45;;;;;;;0.05;50.99;102082.97;4982278;28;20049;-57
2022/12/01 08:23:11;;;;;;;65.18;25.23;;;;;;;0.59;50.58;102133.19;4984407;28;20114;-54
2022/12/01 08:25:36;;;;;;;66.72;25.90;;;;;;;0.97;49.95;102124.66;4979862;28;20524;-49
2022/12/01 08:28:02;;;;;;;64.20;26.63;;;;;;;1.11;49.35;102110.75;4994213;28;20055;-47
2022/12/01 08:30:28;;;;;;;59.72;24.40;;;;;;;1.41;48.61;102124.00;4989291;28;20050;-49
2022/12/01 08:32:55;;;;;;;61.40;24.65;;;;;;;1.33;48.57;102117.66;4984161;28;20052;-45
2022/12/01 08:35:22;;;;;;;56.08;23.70;;;;;;;1.27;48.60;102131.09;4987571;28;20046;-52
2022/12/01 08:37:50;;;;;;;52.85;23.38;;;;;;;1.24;47.99;102123.28;4988625;28;20418;-55
2022/12/01 08:40:16;;;;;;;55.07;23.63;;;;;;;1.15;47.82;102110.06;4971415;28;20053;-50
2022/12/01 08:42:42;;;;;;;62.58;24.67;;;;;;;1.46;47.34;102121.63;4976256;28;20052;-48
2022/12/01 08:45:08;;;;;;;57.63;25.77;;;;;;;1.65;46.95;102117.31;4985803;28;20049;-48
2022/12/01 08:47:34;;;;;;;51.67;22.63;;;;;;;1.63;46.58;102118.91;4979711;28;20062;-48
2022/12/01 08:50:00;;;;;;;54.75;23.48;;;;;;;1.43;46.51;102108.66;4982468;28;20116;-52
2022/12/01 08:52:31;;;;;;;59.33;25.27;;;;;;;1.30;46.64;102120.09;4981783;28;20070;-52
2022/12/01 08:54:57;;;;;;;61.45;24.58;;;;;;;1.41;46.28;102121.44;4972457;28;20105;-50
2022/12/01 08:57:23;;;;;;;61.25;24.65;;;;;;;1.60;46.01;102115.38;4972286;28;20459;-49
2022/12/01 08:59:49;;;;;;;58.78;24.33;;;;;;;1.39;45.86;102114.47;4984491;28;20050;-50
2022/12/01 09:02:16;;;;;;;59.17;24.88;;;;;;;1.36;46.24;102116.94;4992440;28;20521;-50
2022/12/01 09:04:43;;;;;;;59.00;24.85;;;;;;;1.41;46.00;102107.75;4993746;28;20038;-46
2022/12/01 09:07:10;;;;;;;59.03;25.20;;;;;;;1.23;45.90;102111.28;4988108;28;20106;-49
2022/12/01 09:09:36;;;;;;;63.92;26.02;;;;;;;1.22;46.38;102103.53;4979892;28;20051;-46
2022/12/01 09:12:02;;;;;;;67.38;24.60;;;;;;;1.27;46.23;102102.03;4987684;28;20096;-48
2022/12/01 09:14:28;;;;;;;67.78;25.83;;;;;;;1.35;46.18;102098.09;4975759;28;20506;-48
2022/12/01 09:16:54;;;;;;;63.42;25.70;;;;;;;1.12;46.06;102063.84;4978381;28;20126;-52
2022/12/01 09:19:20;;;;;;;79.35;33.63;;;;;;;1.05;46.05;102101.91;4975809;28;20053;-49
2022/12/01 09:21:47;;;;;;;65.93;25.77;;;;;;;0.87;46.15;102102.03;5003048;28;20046;-51
2022/12/01 09:24:14;;;;;;;60.42;26.15;;;;;;;0.63;46.75;102095.84;4987796;28;20058;-46
2022/12/01 09:26:41;;;;;;;62.83;25.83;;;;;;;0.46;46.87;102095.06;4978552;28;20518;-48
2022/12/01 09:29:09;;;;;;;82.90;26.17;;;;;;;0.30;47.19;102090.94;4973977;28;20076;-47
2022/12/01 09:31:36;;;;;;;65.20;24.73;;;;;;;0.06;47.44;102073.56;4985572;28;20050;-45
2022/12/01 09:34:10;;;;;;;68.20;26.35;;;;;;;0.00;48.10;102085.28;4983662;28;20042;-48
2022/12/01 09:36:36;;;;;;;79.95;28.17;;;;;;;-0.19;48.26;102077.56;4952503;28;20070;-48
2022/12/01 09:39:06;;;;;;;64.05;25.38;;;;;;;-0.22;48.38;102094.44;4957653;28;20479;-46
2022/12/01 09:41:41;;;;;;;62.80;25.48;;;;;;;-0.25;48.72;102090.03;4977665;28;20050;-45
2022/12/01 09:44:13;;;;;;;61.78;25.77;;;;;;;-0.37;48.56;102086.03;4974441;28;20056;-54
2022/12/01 09:46:52;;;;;;;65.78;24.10;;;;;;;-0.74;49.28;102047.59;4989815;28;20085;-48
2022/12/01 09:49:21;;;;;;;;;;;;;;;-0.66;49.26;102082.94;4990853;28;20105;-48
2022/12/01 09:51:48;;;;;;;59.85;24.02;;;;;;;-0.70;49.41;102088.69;4991835;28;19928;-49
2022/12/01 09:54:14;;;;;;;60.42;25.08;;;;;;;-0.93;49.38;102062.00;4990313;28;20054;-46
2022/12/01 09:56:45;;;;;;;65.88;25.00;;;;;;;-0.78;49.48;102097.63;4985109;28;20125;-48
2022/12/01 09:59:22;;;;;;;66.70;24.50;;;;;;;-0.82;49.64;102094.84;4973030;28;20097;-45
2022/12/01 10:01:54;;;;;;;69.20;25.27;;;;;;;-0.79;49.85;102093.34;4963251;28;20044;-49
2022/12/01 10:04:32;;;;;;;68.30;25.58;;;;;;;-0.73;49.72;102092.78;4977141;28;20127;-50
2022/12/01 10:07:02;;;;;;;66.93;25.48;;;;;;;-1.01;50.19;102063.31;4991585;28;20043;-52
2022/12/01 10:09:46;;;;;;;62.35;25.15;;;;;;;-0.89;50.22;102092.00;4994469;28;20046;-49
2022/12/01 10:12:13;;;;;;;72.45;26.85;;;;;;;-0.92;50.31;102090.97;4974590;28;20506;-53
2022/12/01 10:14:39;;;;;;;65.53;25.63;;;;;;;-0.96;50.64;102086.50;4973567;28;20134;-50
2022/12/01 10:17:15;;;;;;;64.68;26.17;;;;;;;-1.03;50.58;102085.31;4970773;28;20039;-49
2022/12/01 10:20:09;;;;;;;77.45;27.92;;;;;;;-1.01;50.97;102087.97;4988626;28;20049;-49
2022/12/01 10:23:11;;;;;;;72.25;27.10;;;;;;;-0.93;50.49;102089.22;4986663;28;20046;-47
2022/12/01 10:25:52;;;;;;;62.20;24.70;;;;;;;-0.90;50.67;102089.38;4955624;28;20505;-49
2022/12/01 10:28:51;;;;;;;72.65;26.45;;;;;;;-0.88;50.87;102085.22;4981504;28;20053;-47
2022/12/01 10:31:31;;;;;;;68.47;24.88;;;;;;;-1.00;50.92;102049.75;5003191;28;20748;-51
2022/12/01 10:34:09;;;;;;;63.10;24.52;;;;;;;-0.71;50.83;102086.94;4983629;28;20074;-53
2022/12/01 10:36:35;;;;;;;68.88;25.50;;;;;;;-0.50;50.76;102084.56;4983803;28;20070;-53
2022/12/01 10:39:02;;;;;;;64.85;23.95;;;;;;;-0.10;49.99;102069.44;4982271;28;20074;-49
2022/12/01 10:41:30;;;;;;;62.45;23.75;;;;;;;0.22;49.48;102083.72;4990879;28;20050;-52
2022/12/01 10:43:59;;;;;;;61.45;25.33;;;;;;;0.51;49.28;102080.81;4985163;28;20529;-50
2022/12/01 10:46:40;;;;;;;67.28;24.70;;;;;;;0.72;48.70;102080.88;4988980;28;20543;-48
2022/12/01 10:49:17;;;;;;;61.53;25.75;;;;;;;1.03;48.30;102081.38;4999293;28;20047;-49
2022/12/01 10:51:55;;;;;;;66.70;26.08;;;;;;;1.70;47.66;102079.91;4984381;28;20510;-54
2022/12/01 10:54:24;;;;;;;66.05;26.33;;;;;;;2.38;46.34;102080.81;4984699;28;20061;-50
2022/12/01 10:56:54;;;;;;;88.97;34.05;;;;;;;2.67;45.66;102023.66;4987686;28;20038;-55
2022/12/01 10:59:35;;;;;;;72.40;26.85;;;;;;;3.99;44.25;102074.31;4988854;28;20038;-54
2022/12/01 11:02:04;;;;;;;65.60;27.65;;;;;;;4.60;42.91;102032.34;4988703;28;20038;-53
2022/12/01 11:04:54;;;;;;;76.13;27.95;;;;;;;5.72;41.72;102063.56;4980096;28;20521;-51
2022/12/01 11:07:24;;;;;;;;;;;;;;;6.23;40.50;102066.47;4985358;28;20061;-49
2022/12/01 11:10:02;;;;;;;69.25;27.45;;;;;;;6.00;40.79;102067.69;4986162;28;19964;-52
2022/12/01 11:12:28;;;;;;;64.10;28.38;;;;;;;5.42;41.28;102068.00;4989630;28;20054;-54
2022/12/01 11:14:55;;;;;;;73.35;30.30;;;;;;;4.57;41.84;102061.44;4985777;28;20632;-47
2022/12/01 11:17:21;;;;;;;72.30;29.17;;;;;;;3.73;42.31;102064.91;4989825;28;20046;-48
2022/12/01 11:19:47;;;;;;;66.40;30.60;;;;;;;3.10;43.04;102059.41;4985107;28;20047;-53
2022/12/01 11:22:30;;;;;;;80.50;32.67;;;;;;;2.49;43.72;102056.41;4993281;28;20046;-48
2022/12/01 11:24:58;;;;;;;73.85;30.00;;;;;;;2.18;44.39;102053.53;4981593;28;20062;-47
2022/12/01 11:27:35;;;;;;;71.22;28.40;;;;;;;2.36;43.93;102039.66;4984444;28;20057;-51